createdAt,value
2023-05-22T00:01:50.018Z,15.18
2023-05-22T00:04:21.512Z,15.05
2023-05-22T00:06:49.867Z,15.95
2023-05-22T00:09:18.094Z,14.77
2023-05-22T00:11:46.202Z,14.43
2023-05-22T00:14:14.255Z,14.38
2023-05-22T00:16:42.183Z,15.38
2023-05-22T00:19:16.700Z,13.68
2023-05-22T00:21:45.483Z,14.13
2023-05-22T00:24:13.577Z,14.57
2023-05-22T00:26:41.275Z,13.07
2023-05-22T00:29:09.544Z,12.23
2023-05-22T00:31:37.692Z,14.02
2023-05-22T00:34:05.882Z,13.40
2023-05-22T00:36:33.637Z,13.30
2023-05-22T00:39:01.651Z,13.82
2023-05-22T00:41:29.636Z,13.77
2023-05-22T00:43:57.852Z,13.00
2023-05-22T00:46:25.658Z,13.93
2023-05-22T00:48:53.726Z,12.43
2023-05-22T00:51:22.738Z,13.50
2023-05-22T00:53:51.214Z,12.73
2023-05-22T00:56:19.579Z,12.50
2023-05-22T00:58:48.125Z,13.20
2023-05-22T01:01:16.165Z,12.70
2023-05-22T01:03:46.075Z,12.93
2023-05-22T01:06:18.468Z,12.82
2023-05-22T01:08:46.553Z,11.95
2023-05-22T01:11:36.998Z,13.32
2023-05-22T01:14:25.693Z,13.00
2023-05-22T01:17:16.306Z,13.07
2023-05-22T01:19:50.918Z,12.18
2023-05-22T01:22:44.028Z,12.90
2023-05-22T01:28:10.101Z,12.88
2023-05-22T01:30:52.737Z,12.93
2023-05-22T01:33:22.081Z,12.65
2023-05-22T01:35:54.189Z,13.35
2023-05-22T01:38:22.519Z,13.57
2023-05-22T01:40:51.196Z,13.40
2023-05-22T01:43:19.112Z,12.55
2023-05-22T01:45:47.469Z,13.18
2023-05-22T01:48:15.184Z,13.00
2023-05-22T01:50:45.390Z,13.82
2023-05-22T01:53:33.184Z,13.65
2023-05-22T01:56:10.143Z,14.02
2023-05-22T01:58:52.573Z,14.18
2023-05-22T02:01:22.718Z,13.00
2023-05-22T02:03:56.657Z,15.02
2023-05-22T02:06:29.112Z,14.90
2023-05-22T02:08:57.161Z,14.88
2023-05-22T02:11:28.503Z,14.70
2023-05-22T02:13:57.571Z,14.88
2023-05-22T02:16:25.889Z,14.15
2023-05-22T02:19:06.365Z,13.57
2023-05-22T02:21:36.207Z,14.68
2023-05-22T02:24:04.109Z,13.85
2023-05-22T02:26:32.440Z,13.50
2023-05-22T02:29:01.423Z,13.77
2023-05-22T02:31:29.880Z,13.23
2023-05-22T02:33:58.059Z,13.65
2023-05-22T02:36:26.416Z,14.02
2023-05-22T02:38:55.579Z,12.88
2023-05-22T02:41:25.193Z,11.90
2023-05-22T02:43:53.809Z,11.68
2023-05-22T02:46:21.945Z,11.70
2023-05-22T02:48:49.729Z,12.05
2023-05-22T02:51:19.707Z,12.15
2023-05-22T02:53:47.985Z,12.52
2023-05-22T02:56:16.091Z,12.30
2023-05-22T02:58:43.832Z,11.65
2023-05-22T03:01:11.831Z,12.15
2023-05-22T03:03:39.656Z,12.55
2023-05-22T03:06:08.949Z,11.50
2023-05-22T03:08:41.686Z,11.65
2023-05-22T03:11:10.134Z,12.15
2023-05-22T03:13:37.840Z,11.32
2023-05-22T03:16:06.357Z,11.70
2023-05-22T03:18:34.117Z,11.52
2023-05-22T03:21:02.218Z,11.27
2023-05-22T03:23:29.974Z,11.40
2023-05-22T03:25:58.043Z,11.55
2023-05-22T03:28:30.002Z,11.18
2023-05-22T03:30:58.098Z,11.88
2023-05-22T03:33:29.827Z,10.90
2023-05-22T03:35:57.977Z,10.98
2023-05-22T03:38:26.386Z,10.98
2023-05-22T03:40:54.836Z,10.93
2023-05-22T03:43:22.729Z,11.20
2023-05-22T03:45:51.581Z,10.32
2023-05-22T03:48:20.073Z,10.93
2023-05-22T03:50:48.222Z,10.52
2023-05-22T03:53:15.960Z,10.43
2023-05-22T03:55:44.072Z,10.93
2023-05-22T03:58:11.782Z,10.18
2023-05-22T04:00:40.408Z,10.30
2023-05-22T04:03:13.051Z,9.65
2023-05-22T04:05:41.451Z,9.77
2023-05-22T04:08:10.749Z,9.63
2023-05-22T04:10:39.144Z,9.50
2023-05-22T04:13:07.116Z,9.35
2023-05-22T04:15:35.429Z,9.10
2023-05-22T04:18:03.261Z,8.95
2023-05-22T04:20:32.351Z,8.77
2023-05-22T04:23:00.053Z,8.20
2023-05-22T04:25:28.046Z,8.77
2023-05-22T04:27:55.839Z,8.25
2023-05-22T04:30:25.770Z,7.90
2023-05-22T04:32:53.764Z,7.43
2023-05-22T04:35:23.630Z,7.28
2023-05-22T04:37:51.633Z,7.35
2023-05-22T04:40:19.776Z,7.32
2023-05-22T04:42:47.946Z,7.38
2023-05-22T04:45:16.015Z,7.00
2023-05-22T04:47:43.835Z,7.43
2023-05-22T04:50:12.112Z,7.20
2023-05-22T04:52:39.899Z,6.82
2023-05-22T04:55:08.651Z,6.57
2023-05-22T04:57:36.419Z,6.93
2023-05-22T05:00:06.047Z,7.10
2023-05-22T05:02:35.632Z,6.40
2023-05-22T05:05:03.897Z,6.43
2023-05-22T05:07:31.654Z,6.18
2023-05-22T05:09:59.663Z,6.85
2023-05-22T05:12:28.180Z,6.70
2023-05-22T05:14:56.494Z,6.43
2023-05-22T05:17:24.254Z,5.70
2023-05-22T05:19:52.263Z,6.65
2023-05-22T05:22:20.120Z,6.45
2023-05-22T05:24:48.198Z,6.10
2023-05-22T05:27:16.077Z,5.82
2023-05-22T05:29:45.633Z,5.07
2023-05-22T05:32:22.637Z,5.75
2023-05-22T05:35:12.495Z,6.05
2023-05-22T05:37:49.997Z,5.20
2023-05-22T05:40:19.222Z,5.20
2023-05-22T05:42:51.391Z,5.63
2023-05-22T05:45:24.006Z,5.13
2023-05-22T05:47:53.164Z,5.10
2023-05-22T05:50:21.446Z,5.35
2023-05-22T05:52:49.253Z,5.40
2023-05-22T05:55:19.444Z,5.53
2023-05-22T05:57:48.418Z,5.47
2023-05-22T06:00:23.672Z,5.47
2023-05-22T06:02:52.980Z,5.72
2023-05-22T06:05:34.985Z,5.05
2023-05-22T06:08:19.934Z,5.80
2023-05-22T06:10:48.425Z,4.90
2023-05-22T06:13:34.172Z,4.95
2023-05-22T06:16:05.719Z,5.30
2023-05-22T06:18:35.037Z,4.47
2023-05-22T06:21:03.016Z,5.03
2023-05-22T06:23:30.961Z,4.82
2023-05-22T06:25:59.410Z,4.70
2023-05-22T06:28:27.950Z,4.32
2023-05-22T06:30:58.054Z,4.68
2023-05-22T06:33:28.152Z,4.80
2023-05-22T06:35:56.668Z,3.90
2023-05-22T06:38:24.524Z,3.28
2023-05-22T06:40:52.494Z,3.67
2023-05-22T06:43:23.773Z,3.15
2023-05-22T06:45:56.332Z,3.38
2023-05-22T06:48:24.182Z,3.10
2023-05-22T06:51:02.665Z,2.90
2023-05-22T06:53:30.473Z,3.28
2023-05-22T06:55:58.980Z,3.00
2023-05-22T06:58:36.966Z,3.53
2023-05-22T07:01:07.888Z,3.65
2023-05-22T07:03:41.211Z,2.97
2023-05-22T07:06:29.212Z,3.20
2023-05-22T07:08:57.721Z,2.80
2023-05-22T07:11:25.918Z,3.20
2023-05-22T07:13:53.755Z,3.20
2023-05-22T07:16:23.597Z,2.60
2023-05-22T07:18:51.514Z,2.92
2023-05-22T07:21:19.840Z,2.95
2023-05-22T07:23:48.549Z,2.88
2023-05-22T07:26:16.679Z,2.72
2023-05-22T07:28:51.204Z,2.65
2023-05-22T07:31:19.394Z,2.90
2023-05-22T07:33:48.884Z,3.30
2023-05-22T07:36:19.163Z,3.05
2023-05-22T07:38:47.335Z,3.10
2023-05-22T07:41:15.890Z,3.42
2023-05-22T07:43:43.944Z,3.50
2023-05-22T07:46:15.591Z,3.22
2023-05-22T07:48:55.186Z,3.00
2023-05-22T07:51:23.332Z,2.80
2023-05-22T07:53:53.469Z,2.88
2023-05-22T07:56:22.241Z,2.80
2023-05-22T07:58:52.089Z,3.08
2023-05-22T08:01:22.621Z,2.20
2023-05-22T08:03:50.519Z,2.38
2023-05-22T08:06:19.090Z,2.50
2023-05-22T08:08:46.956Z,2.75
2023-05-22T08:11:14.948Z,2.53
2023-05-22T08:13:42.811Z,2.80
2023-05-22T08:16:11.193Z,3.03
2023-05-22T08:18:39.037Z,2.40
2023-05-22T08:21:07.086Z,2.30
2023-05-22T08:23:36.469Z,2.60
2023-05-22T08:26:04.893Z,2.58
2023-05-22T08:28:32.855Z,2.58
2023-05-22T08:31:01.141Z,2.80
2023-05-22T08:33:28.945Z,2.60
2023-05-22T08:35:56.888Z,2.60
2023-05-22T08:38:24.679Z,2.38
2023-05-22T08:40:55.800Z,2.47
2023-05-22T08:43:24.625Z,2.35
2023-05-22T08:46:06.098Z,2.50
2023-05-22T08:48:34.274Z,2.75
2023-05-22T08:51:06.094Z,2.50
2023-05-22T08:53:38.995Z,2.60
2023-05-22T08:56:08.729Z,2.55
2023-05-22T08:58:38.366Z,2.25
2023-05-22T09:01:07.531Z,2.45
2023-05-22T09:03:37.768Z,2.50
2023-05-22T09:06:11.177Z,2.55
2023-05-22T09:08:39.404Z,2.60
2023-05-22T09:11:07.453Z,2.40
2023-05-22T09:13:35.263Z,2.28
2023-05-22T09:16:11.436Z,2.60
2023-05-22T09:18:40.176Z,2.28
2023-05-22T09:21:21.568Z,2.30
2023-05-22T09:24:01.347Z,2.45
2023-05-22T09:26:29.974Z,3.22
2023-05-22T09:29:00.135Z,2.45
2023-05-22T09:31:32.015Z,2.35
2023-05-22T09:34:00.066Z,2.28
2023-05-22T09:36:34.849Z,2.38
2023-05-22T09:39:04.450Z,2.60
2023-05-22T09:41:37.746Z,3.10
2023-05-22T09:44:26.981Z,2.45
2023-05-22T09:46:55.876Z,2.60
2023-05-22T09:49:23.587Z,2.60
2023-05-22T09:51:54.281Z,2.58
2023-05-22T09:54:25.830Z,2.83
2023-05-22T09:56:59.275Z,2.42
2023-05-22T09:59:30.531Z,2.63
2023-05-22T10:02:02.057Z,2.60
2023-05-22T10:04:33.189Z,2.28
2023-05-22T10:07:03.793Z,2.40
2023-05-22T10:09:35.758Z,2.55
2023-05-22T10:12:08.124Z,2.35
2023-05-22T10:14:36.714Z,2.50
2023-05-22T10:17:07.005Z,2.22
2023-05-22T10:19:39.458Z,2.55
2023-05-22T10:22:11.206Z,2.60
2023-05-22T10:24:41.252Z,2.30
2023-05-22T10:27:09.320Z,2.85
2023-05-22T10:29:58.246Z,2.53
2023-05-22T10:32:42.539Z,2.50
2023-05-22T10:35:58.029Z,2.40
2023-05-22T10:38:26.180Z,2.42
2023-05-22T10:40:54.909Z,2.60
2023-05-22T10:43:23.588Z,2.47
2023-05-22T10:46:06.570Z,2.88
2023-05-22T10:48:39.527Z,2.50
2023-05-22T10:51:08.549Z,2.90
2023-05-22T10:53:37.094Z,3.10
2023-05-22T10:56:14.112Z,2.55
2023-05-22T10:58:57.665Z,2.47
2023-05-22T11:01:28.611Z,2.80
2023-05-22T11:04:07.178Z,3.28
2023-05-22T11:06:49.020Z,2.95
2023-05-22T11:09:31.897Z,2.78
2023-05-22T11:12:25.153Z,2.90
2023-05-22T11:14:58.127Z,4.57
2023-05-22T11:17:36.353Z,2.75
2023-05-22T11:20:05.836Z,2.88
2023-05-22T11:22:38.387Z,3.00
2023-05-22T11:25:20.301Z,3.10
2023-05-22T11:27:49.280Z,2.78
2023-05-22T11:30:17.779Z,2.60
2023-05-22T11:32:48.061Z,3.00
2023-05-22T11:35:17.887Z,2.60
2023-05-22T11:37:46.206Z,2.70
2023-05-22T11:40:22.059Z,2.80
2023-05-22T11:42:50.070Z,3.70
2023-05-22T11:45:18.159Z,2.70
2023-05-22T11:47:46.574Z,2.50
2023-05-22T11:50:17.932Z,2.75
2023-05-22T11:52:53.687Z,3.05
2023-05-22T11:55:22.964Z,3.00
2023-05-22T11:57:50.769Z,2.97
2023-05-22T12:00:19.401Z,3.20
2023-05-22T12:02:50.398Z,2.63
2023-05-22T12:05:21.707Z,2.92
2023-05-22T12:07:49.822Z,2.80
2023-05-22T12:10:18.062Z,8.60
2023-05-22T12:12:48.139Z,2.58
2023-05-22T12:15:22.625Z,3.00
2023-05-22T12:17:54.671Z,2.63
2023-05-22T12:20:22.695Z,2.70
2023-05-22T12:22:50.491Z,3.25
2023-05-22T12:25:18.549Z,2.40
2023-05-22T12:27:46.403Z,4.25
2023-05-22T12:30:15.449Z,2.63
2023-05-22T12:32:49.096Z,2.50
2023-05-22T12:35:18.161Z,2.65
2023-05-22T12:37:52.254Z,2.38
2023-05-22T12:40:20.529Z,3.20
2023-05-22T12:42:48.887Z,2.63
2023-05-22T12:45:18.091Z,2.58
2023-05-22T12:47:46.285Z,2.97
2023-05-22T12:50:14.692Z,2.45
2023-05-22T12:52:42.367Z,2.88
2023-05-22T12:55:11.611Z,2.67
2023-05-22T12:57:39.393Z,2.55
2023-05-22T13:00:07.937Z,2.70
2023-05-22T13:02:35.839Z,2.42
2023-05-22T13:05:04.214Z,2.70
2023-05-22T13:07:32.430Z,5.78
2023-05-22T13:10:00.583Z,2.70
2023-05-22T13:12:28.305Z,2.53
2023-05-22T13:14:56.418Z,2.47
2023-05-22T13:17:24.482Z,2.58
2023-05-22T13:19:54.514Z,2.65
2023-05-22T13:22:22.976Z,2.70
2023-05-22T13:24:51.173Z,2.35
2023-05-22T13:27:19.294Z,2.70
2023-05-22T13:29:47.253Z,3.08
2023-05-22T13:32:15.301Z,2.67
2023-05-22T13:34:43.694Z,2.88
2023-05-22T13:37:11.717Z,2.63
2023-05-22T13:39:39.984Z,2.97
2023-05-22T13:42:08.374Z,3.15
2023-05-22T13:44:36.404Z,3.20
2023-05-22T13:47:05.200Z,2.50
2023-05-22T13:49:33.304Z,2.78
2023-05-22T13:52:01.082Z,2.55
2023-05-22T13:54:29.302Z,2.78
2023-05-22T13:56:57.849Z,2.63
2023-05-22T13:59:26.168Z,2.85
2023-05-22T14:01:53.922Z,3.03
2023-05-22T14:04:21.925Z,2.67
2023-05-22T14:06:49.731Z,3.00
2023-05-22T14:09:18.149Z,2.80
2023-05-22T14:11:46.563Z,3.22
2023-05-22T14:14:14.598Z,2.67
2023-05-22T14:16:42.406Z,2.80
2023-05-22T14:19:10.590Z,3.15
2023-05-22T14:21:38.418Z,2.63
2023-05-22T14:24:06.586Z,4.70
2023-05-22T14:26:34.347Z,2.90
2023-05-22T14:29:02.515Z,2.80
2023-05-22T14:31:30.448Z,2.90
2023-05-22T14:33:58.535Z,2.50
2023-05-22T14:36:26.268Z,3.88
2023-05-22T14:38:57.050Z,2.47
2023-05-22T14:41:24.775Z,3.20
2023-05-22T14:43:52.740Z,3.83
2023-05-22T14:46:20.538Z,2.80
2023-05-22T14:48:48.956Z,3.22
2023-05-22T14:51:18.410Z,2.92
2023-05-22T14:53:46.461Z,3.72
2023-05-22T14:56:14.214Z,2.85
2023-05-22T14:58:42.310Z,2.50
2023-05-22T15:01:10.067Z,2.80
2023-05-22T15:03:38.324Z,2.47
2023-05-22T15:06:06.229Z,2.70
2023-05-22T15:08:34.195Z,2.60
2023-05-22T15:11:01.929Z,2.47
2023-05-22T15:13:29.967Z,2.80
2023-05-22T15:15:58.513Z,2.88
2023-05-22T15:18:27.323Z,2.90
2023-05-22T15:20:55.350Z,2.58
2023-05-22T15:23:25.454Z,2.63
2023-05-22T15:25:54.368Z,2.83
2023-05-22T15:28:23.209Z,2.83
2023-05-22T15:30:50.933Z,2.65
2023-05-22T15:33:18.989Z,3.00
2023-05-22T15:35:47.638Z,2.83
2023-05-22T15:38:16.698Z,2.83
2023-05-22T15:40:44.729Z,2.88
2023-05-22T15:43:12.767Z,2.70
2023-05-22T15:45:41.136Z,2.50
2023-05-22T15:48:09.420Z,2.55
2023-05-22T15:50:37.233Z,3.03
2023-05-22T15:53:05.247Z,3.05
2023-05-22T15:55:34.026Z,3.08
2023-05-22T15:58:07.779Z,2.92
2023-05-22T16:00:41.059Z,3.03
2023-05-22T16:03:11.367Z,3.00
2023-05-22T16:05:40.350Z,3.00
2023-05-22T16:08:10.523Z,2.70
2023-05-22T16:10:41.483Z,2.83
2023-05-22T16:13:10.725Z,2.90
2023-05-22T16:15:40.329Z,2.70
2023-05-22T16:18:09.736Z,2.78
2023-05-22T16:20:37.695Z,2.88
2023-05-22T16:23:05.765Z,2.33
2023-05-22T16:25:33.495Z,2.70
2023-05-22T16:28:01.517Z,3.17
2023-05-22T16:30:30.153Z,3.10
2023-05-22T16:32:58.397Z,3.03
2023-05-22T16:35:26.234Z,3.13
2023-05-22T16:37:54.220Z,2.78
2023-05-22T16:40:22.078Z,2.63
2023-05-22T16:42:51.737Z,2.97
2023-05-22T16:45:19.557Z,3.00
2023-05-22T16:47:47.541Z,2.88
2023-05-22T16:50:15.461Z,2.70
2023-05-22T16:52:43.433Z,3.10
2023-05-22T16:55:11.272Z,2.95
2023-05-22T16:57:40.201Z,3.00
2023-05-22T17:00:10.946Z,3.17
2023-05-22T17:02:39.306Z,2.67
2023-05-22T17:05:08.266Z,2.70
2023-05-22T17:07:36.213Z,3.05
2023-05-22T17:10:04.070Z,3.03
2023-05-22T17:12:32.213Z,3.10
2023-05-22T17:14:59.999Z,3.10
2023-05-22T17:17:28.175Z,3.00
2023-05-22T17:19:56.122Z,3.13
2023-05-22T17:22:24.180Z,3.00
2023-05-22T17:24:51.890Z,3.20
2023-05-22T17:27:34.478Z,3.50
2023-05-22T17:30:04.868Z,3.50
2023-05-22T17:32:33.121Z,3.22
2023-05-22T17:35:02.104Z,3.30
2023-05-22T17:37:30.147Z,3.40
2023-05-22T17:39:57.874Z,6.25
2023-05-22T17:42:25.942Z,8.15
2023-05-22T17:44:53.709Z,6.40
2023-05-22T17:47:21.909Z,6.93
2023-05-22T17:49:49.775Z,6.15
2023-05-22T17:52:17.794Z,6.05
2023-05-22T17:54:45.636Z,5.43
2023-05-22T17:57:13.770Z,5.63
2023-05-22T17:59:41.694Z,5.60
2023-05-22T18:02:09.858Z,5.60
2023-05-22T18:04:37.712Z,5.60
2023-05-22T18:07:05.952Z,5.78
2023-05-22T18:09:33.668Z,6.97
2023-05-22T18:12:03.583Z,8.40
2023-05-22T18:14:31.748Z,7.82
2023-05-22T18:16:59.620Z,8.93
2023-05-22T18:19:27.725Z,8.57
2023-05-22T18:21:55.656Z,9.32
2023-05-22T18:24:25.063Z,7.70
2023-05-22T18:26:54.761Z,7.78
2023-05-22T18:29:23.046Z,7.22
2023-05-22T18:31:50.952Z,7.80
2023-05-22T18:34:19.082Z,7.75
2023-05-22T18:36:46.781Z,8.10
2023-05-22T18:39:14.939Z,8.23
2023-05-22T18:41:42.610Z,8.07
2023-05-22T18:44:10.682Z,8.02
2023-05-22T18:46:38.515Z,8.23
2023-05-22T18:49:06.504Z,8.20
2023-05-22T18:51:35.803Z,7.32
2023-05-22T18:54:03.852Z,7.70
2023-05-22T18:56:32.066Z,6.53
2023-05-22T18:59:00.117Z,6.40
2023-05-22T19:01:27.956Z,6.90
2023-05-22T19:03:55.981Z,6.28
2023-05-22T19:06:25.957Z,7.00
2023-05-22T19:08:53.928Z,6.65
2023-05-22T19:11:21.749Z,7.00
2023-05-22T19:13:49.781Z,6.90
2023-05-22T19:16:17.687Z,7.20
2023-05-22T19:18:46.127Z,6.60
2023-05-22T19:21:13.906Z,6.60
2023-05-22T19:23:42.871Z,6.97
2023-05-22T19:26:10.811Z,7.30
2023-05-22T19:28:38.841Z,7.47
2023-05-22T19:31:06.597Z,8.13
2023-05-22T19:33:34.823Z,8.77
2023-05-22T19:36:02.977Z,9.27
2023-05-22T19:38:31.258Z,8.77
2023-05-22T19:40:59.026Z,9.93
2023-05-22T19:43:27.180Z,9.20
2023-05-22T19:45:55.602Z,8.80
2023-05-22T19:48:23.737Z,9.57
2023-05-22T19:50:51.562Z,8.25
2023-05-22T19:53:19.590Z,10.00
2023-05-22T19:55:47.711Z,9.40
2023-05-22T19:58:15.859Z,8.98
2023-05-22T20:00:44.035Z,7.88
2023-05-22T20:03:12.622Z,8.90
2023-05-22T20:05:40.777Z,8.25
2023-05-22T20:08:10.248Z,8.13
2023-05-22T20:10:38.272Z,8.80
2023-05-22T20:13:07.798Z,8.80
2023-05-22T20:15:35.604Z,9.02
2023-05-22T20:18:03.999Z,9.48
2023-05-22T20:20:31.838Z,9.30
2023-05-22T20:22:59.855Z,10.55
2023-05-22T20:25:27.601Z,11.38
2023-05-22T20:27:55.625Z,10.50
2023-05-22T20:30:23.476Z,10.40
2023-05-22T20:32:52.043Z,11.32
2023-05-22T20:35:20.268Z,11.70
2023-05-22T20:37:48.808Z,10.88
2023-05-22T20:40:17.535Z,10.30
2023-05-22T20:42:46.373Z,11.10
2023-05-22T20:45:16.135Z,10.52
2023-05-22T20:47:44.724Z,12.43
2023-05-22T20:50:12.561Z,12.30
2023-05-22T20:52:40.695Z,13.23
2023-05-22T20:55:09.019Z,12.77
2023-05-22T20:57:36.943Z,12.73
2023-05-22T21:00:06.597Z,12.40
2023-05-22T21:02:34.699Z,13.85
2023-05-22T21:05:02.666Z,14.00
2023-05-22T21:07:30.677Z,14.55
2023-05-22T21:09:58.461Z,15.18
2023-05-22T21:12:26.448Z,17.10
2023-05-22T21:14:54.176Z,17.90
2023-05-22T21:17:22.848Z,17.85
2023-05-22T21:19:50.624Z,18.63
2023-05-22T21:22:18.625Z,16.95
2023-05-22T21:24:46.395Z,17.60
2023-05-22T21:27:14.406Z,17.83
2023-05-22T21:29:42.095Z,17.42
2023-05-22T21:32:10.095Z,18.35
2023-05-22T21:34:37.791Z,18.25
2023-05-22T21:37:05.914Z,19.42
2023-05-22T21:39:33.637Z,18.48
2023-05-22T21:42:01.665Z,17.73
2023-05-22T21:44:29.363Z,18.50
2023-05-22T21:46:57.340Z,17.27
2023-05-22T21:49:25.085Z,17.27
2023-05-22T21:51:53.170Z,18.95
2023-05-22T21:54:21.025Z,19.27
2023-05-22T21:56:49.033Z,19.95
2023-05-22T21:59:16.806Z,19.08
2023-05-22T22:01:44.816Z,19.70
2023-05-22T22:04:12.710Z,19.30
2023-05-22T22:06:41.009Z,18.90
2023-05-22T22:09:09.319Z,18.90
2023-05-22T22:11:37.293Z,20.23
2023-05-22T22:14:05.274Z,19.67
2023-05-22T22:16:35.659Z,20.73
2023-05-22T22:19:04.936Z,20.50
2023-05-22T22:21:33.601Z,18.98
2023-05-22T22:24:01.364Z,19.10
2023-05-22T22:26:30.724Z,18.90
2023-05-22T22:28:58.983Z,18.75
2023-05-22T22:31:26.982Z,19.27
2023-05-22T22:33:54.707Z,19.33
2023-05-22T22:36:22.944Z,18.40
2023-05-22T22:38:50.784Z,20.05
2023-05-22T22:41:18.774Z,19.80
2023-05-22T22:43:46.856Z,20.70
2023-05-22T22:46:14.857Z,19.35
2023-05-22T22:48:42.730Z,20.10
2023-05-22T22:51:10.811Z,20.00
2023-05-22T22:53:38.782Z,17.90
2023-05-22T22:56:06.855Z,17.15
2023-05-22T22:58:34.642Z,17.80
2023-05-22T23:01:02.677Z,17.27
2023-05-22T23:03:30.661Z,18.98
2023-05-22T23:05:58.608Z,19.85
2023-05-22T23:08:26.397Z,19.98
2023-05-22T23:10:54.549Z,21.00
2023-05-22T23:13:22.345Z,19.58
2023-05-22T23:15:50.452Z,19.58
2023-05-22T23:18:18.265Z,18.83
2023-05-22T23:20:46.465Z,19.05
2023-05-22T23:23:14.283Z,18.45
2023-05-22T23:25:42.665Z,18.88
2023-05-22T23:28:10.662Z,18.38
2023-05-22T23:30:38.752Z,17.67
2023-05-22T23:33:06.517Z,18.73
2023-05-22T23:35:34.551Z,16.27
2023-05-22T23:38:02.383Z,16.95
2023-05-22T23:40:30.410Z,16.33
2023-05-22T23:42:58.200Z,17.08
2023-05-22T23:45:26.268Z,17.38
2023-05-22T23:47:54.162Z,17.00
2023-05-22T23:50:22.168Z,16.90
2023-05-22T23:52:49.933Z,16.83
2023-05-22T23:55:17.983Z,16.20
2023-05-22T23:57:45.760Z,17.50
